createdAt,value
2018-06-21T00:00:04.269Z,19.11
2018-06-21T00:02:33.466Z,19.06
2018-06-21T00:05:02.626Z,19.06
2018-06-21T00:07:31.770Z,19.03
2018-06-21T00:10:00.885Z,18.99
2018-06-21T00:12:30.075Z,18.98
2018-06-21T00:15:00.804Z,18.96
2018-06-21T00:17:30.006Z,18.95
2018-06-21T00:19:59.169Z,18.93
2018-06-21T00:22:28.333Z,18.90
2018-06-21T00:24:57.473Z,18.85
2018-06-21T00:27:26.649Z,18.86
2018-06-21T00:29:55.770Z,18.83
2018-06-21T00:32:24.911Z,18.79
2018-06-21T00:34:54.116Z,18.78
2018-06-21T00:37:23.213Z,18.70
2018-06-21T00:39:52.466Z,18.61
2018-06-21T00:42:21.590Z,18.59
2018-06-21T00:44:50.708Z,18.54
2018-06-21T00:47:19.826Z,18.50
2018-06-21T00:49:48.993Z,18.46
2018-06-21T00:52:18.118Z,18.45
2018-06-21T00:54:47.220Z,18.46
2018-06-21T00:57:16.327Z,18.44
2018-06-21T00:59:45.993Z,18.42
2018-06-21T01:02:15.205Z,18.40
2018-06-21T01:04:44.361Z,18.39
2018-06-21T01:07:13.498Z,18.35
2018-06-21T01:09:42.652Z,18.32
2018-06-21T01:12:12.009Z,18.29
2018-06-21T01:14:41.117Z,18.26
2018-06-21T01:17:10.265Z,18.24
2018-06-21T01:19:39.400Z,18.22
2018-06-21T01:22:08.587Z,18.18
2018-06-21T01:24:37.712Z,18.14
2018-06-21T01:27:06.974Z,18.11
2018-06-21T01:29:36.208Z,18.11
2018-06-21T01:32:05.414Z,18.11
2018-06-21T01:34:34.572Z,18.07
2018-06-21T01:37:03.809Z,18.04
2018-06-21T01:39:32.927Z,18.02
2018-06-21T01:42:02.100Z,18.02
2018-06-21T01:44:31.221Z,18.01
2018-06-21T01:47:00.344Z,18.01
2018-06-21T01:49:29.484Z,17.97
2018-06-21T01:51:58.628Z,17.95
2018-06-21T01:54:27.783Z,17.96
2018-06-21T01:56:56.955Z,17.94
2018-06-21T01:59:26.112Z,17.90
2018-06-21T02:01:55.324Z,17.87
2018-06-21T02:04:24.460Z,17.84
2018-06-21T02:06:53.631Z,17.84
2018-06-21T02:09:22.740Z,17.81
2018-06-21T02:11:51.852Z,17.78
2018-06-21T02:14:20.988Z,17.76
2018-06-21T02:16:50.144Z,17.75
2018-06-21T02:19:19.260Z,17.73
2018-06-21T02:21:48.385Z,17.73
2018-06-21T02:24:17.505Z,17.70
2018-06-21T02:26:46.731Z,17.68
2018-06-21T02:29:15.828Z,17.66
2018-06-21T02:31:45.425Z,17.65
2018-06-21T02:34:15.144Z,17.66
2018-06-21T02:36:44.310Z,17.65
2018-06-21T02:39:13.430Z,17.64
2018-06-21T02:41:42.580Z,17.62
2018-06-21T02:44:11.675Z,17.61
2018-06-21T02:46:40.838Z,17.60
2018-06-21T02:49:10.073Z,17.61
2018-06-21T02:51:39.284Z,17.59
2018-06-21T02:54:08.436Z,17.56
2018-06-21T02:56:37.583Z,17.57
2018-06-21T02:59:06.870Z,17.60
2018-06-21T03:01:36.015Z,17.61
2018-06-21T03:04:05.220Z,17.60
2018-06-21T03:06:34.440Z,17.52
2018-06-21T03:09:03.780Z,17.49
2018-06-21T03:11:32.906Z,17.45
2018-06-21T03:14:01.997Z,17.46
2018-06-21T03:16:31.206Z,17.48
2018-06-21T03:19:00.334Z,17.45
2018-06-21T03:21:29.600Z,17.46
2018-06-21T03:23:59.433Z,17.51
2018-06-21T03:26:28.625Z,17.57
2018-06-21T03:28:57.785Z,17.61
2018-06-21T03:31:26.986Z,17.65
2018-06-21T03:33:56.130Z,17.68
2018-06-21T03:36:25.242Z,17.72
2018-06-21T03:38:54.351Z,17.76
2018-06-21T03:41:23.538Z,17.78
2018-06-21T03:43:52.736Z,17.81
2018-06-21T03:46:21.863Z,17.85
2018-06-21T03:48:51.013Z,17.85
2018-06-21T03:51:20.137Z,17.85
2018-06-21T03:53:49.261Z,17.88
2018-06-21T03:56:18.408Z,17.94
2018-06-21T03:58:47.588Z,17.99
2018-06-21T04:01:16.755Z,18.04
2018-06-21T04:03:45.867Z,18.10
2018-06-21T04:06:14.997Z,18.18
2018-06-21T04:08:44.153Z,18.28
2018-06-21T04:11:13.288Z,18.37
2018-06-21T04:13:42.386Z,18.37
2018-06-21T04:16:11.527Z,18.40
2018-06-21T04:18:40.701Z,18.49
2018-06-21T04:21:09.987Z,18.56
2018-06-21T04:23:39.104Z,18.60
2018-06-21T04:26:08.222Z,18.64
2018-06-21T04:28:38.248Z,18.72
2018-06-21T04:31:07.963Z,18.88
2018-06-21T04:33:37.170Z,19.01
2018-06-21T04:36:06.288Z,19.15
2018-06-21T04:38:35.401Z,19.24
2018-06-21T04:41:04.541Z,19.34
2018-06-21T04:43:33.662Z,19.45
2018-06-21T04:46:02.821Z,19.56
2018-06-21T04:48:31.978Z,19.67
2018-06-21T04:51:01.091Z,19.74
2018-06-21T04:53:30.371Z,19.87
2018-06-21T04:55:59.524Z,19.97
2018-06-21T04:58:28.644Z,20.04
2018-06-21T05:00:57.804Z,20.13
2018-06-21T05:03:26.951Z,20.27
2018-06-21T05:05:56.711Z,20.36
2018-06-21T05:08:25.831Z,20.44
2018-06-21T05:10:55.027Z,20.55
2018-06-21T05:13:24.149Z,20.62
2018-06-21T05:15:53.321Z,20.73
2018-06-21T05:18:23.414Z,20.87
2018-06-21T05:20:53.529Z,21.00
2018-06-21T05:23:22.653Z,21.13
2018-06-21T05:25:51.873Z,21.22
2018-06-21T05:28:20.987Z,21.35
2018-06-21T05:30:50.175Z,21.47
2018-06-21T05:33:19.328Z,21.54
2018-06-21T05:35:48.455Z,21.60
2018-06-21T05:38:17.599Z,21.62
2018-06-21T05:40:46.729Z,21.81
2018-06-21T05:43:15.866Z,21.91
2018-06-21T05:45:45.003Z,21.97
2018-06-21T05:48:14.165Z,22.11
2018-06-21T05:50:43.454Z,22.22
2018-06-21T05:53:12.608Z,22.33
2018-06-21T05:55:41.782Z,22.33
2018-06-21T05:58:10.908Z,22.38
2018-06-21T06:00:40.041Z,22.47
2018-06-21T06:03:09.261Z,22.55
2018-06-21T06:05:38.382Z,22.64
2018-06-21T06:08:07.565Z,22.76
2018-06-21T06:10:36.706Z,22.86
2018-06-21T06:13:06.651Z,22.96
2018-06-21T06:15:36.029Z,23.10
2018-06-21T06:18:05.205Z,23.17
2018-06-21T06:20:34.356Z,23.34
2018-06-21T06:23:03.519Z,23.49
2018-06-21T06:25:32.867Z,23.56
2018-06-21T06:28:02.002Z,23.65
2018-06-21T06:30:31.142Z,23.81
2018-06-21T06:33:00.320Z,24.02
2018-06-21T06:35:30.898Z,24.18
2018-06-21T06:38:00.889Z,24.28
2018-06-21T06:40:30.132Z,24.38
2018-06-21T06:42:59.232Z,24.41
2018-06-21T06:45:28.356Z,24.47
2018-06-21T06:47:57.527Z,24.56
2018-06-21T06:50:26.669Z,24.59
2018-06-21T06:52:55.826Z,24.49
2018-06-21T06:55:25.016Z,24.47
2018-06-21T06:57:54.113Z,24.56
2018-06-21T07:00:23.236Z,24.74
2018-06-21T07:02:52.392Z,24.64
2018-06-21T07:05:21.534Z,24.72
2018-06-21T07:07:50.890Z,24.85
2018-06-21T07:10:20.041Z,25.05
2018-06-21T07:12:49.198Z,25.24
2018-06-21T07:15:18.313Z,25.47
2018-06-21T07:17:47.489Z,25.52
2018-06-21T07:20:16.688Z,25.68
2018-06-21T07:22:45.854Z,25.70
2018-06-21T07:25:14.970Z,25.81
2018-06-21T07:27:44.085Z,25.92
2018-06-21T07:30:13.237Z,26.10
2018-06-21T07:32:42.349Z,26.26
2018-06-21T07:35:11.648Z,26.28
2018-06-21T07:37:40.770Z,26.34
2018-06-21T07:40:10.489Z,26.25
2018-06-21T07:42:39.637Z,26.15
2018-06-21T07:45:08.843Z,26.16
2018-06-21T07:47:37.972Z,26.20
2018-06-21T07:50:07.006Z,26.41
2018-06-21T07:52:36.112Z,26.51
2018-06-21T07:55:05.319Z,26.63
2018-06-21T07:57:34.529Z,26.57
2018-06-21T08:00:03.718Z,26.47
2018-06-21T08:02:32.908Z,26.55
2018-06-21T08:05:02.079Z,26.78
2018-06-21T08:07:31.140Z,27.05
2018-06-21T08:10:00.281Z,27.04
2018-06-21T08:12:29.407Z,27.15
2018-06-21T08:14:58.547Z,26.95
2018-06-21T08:17:27.728Z,26.86
2018-06-21T08:19:56.874Z,26.92
2018-06-21T08:22:25.977Z,27.12
2018-06-21T08:24:55.203Z,27.06
2018-06-21T08:27:24.290Z,27.06
2018-06-21T08:29:53.414Z,27.16
2018-06-21T08:32:22.546Z,27.19
2018-06-21T08:34:51.715Z,27.36
2018-06-21T08:37:20.853Z,27.66
2018-06-21T08:39:49.995Z,27.94
2018-06-21T08:42:19.116Z,28.08
2018-06-21T08:44:48.271Z,28.19
2018-06-21T08:47:17.443Z,28.15
2018-06-21T08:49:46.697Z,28.15
2018-06-21T08:52:16.418Z,28.25
2018-06-21T08:54:45.618Z,28.23
2018-06-21T08:57:14.764Z,28.25
2018-06-21T08:59:44.176Z,28.42
2018-06-21T09:02:13.325Z,28.60
2018-06-21T09:04:42.481Z,28.65
2018-06-21T09:07:11.881Z,28.88
2018-06-21T09:09:41.111Z,29.16
2018-06-21T09:12:10.200Z,29.41
2018-06-21T09:14:39.333Z,29.58
2018-06-21T09:17:08.588Z,29.54
2018-06-21T09:19:37.887Z,29.48
2018-06-21T09:22:07.012Z,29.74
2018-06-21T09:24:36.167Z,29.65
2018-06-21T09:27:05.506Z,29.49
2018-06-21T09:29:35.178Z,29.50
2018-06-21T09:32:04.380Z,29.73
2018-06-21T09:34:33.501Z,29.82
2018-06-21T09:37:02.649Z,29.93
2018-06-21T09:39:36.932Z,29.95
2018-06-21T09:42:11.523Z,30.00
2018-06-21T09:45:00.334Z,30.25
2018-06-21T09:47:34.783Z,30.57
2018-06-21T09:50:03.915Z,30.65
2018-06-21T09:52:33.049Z,30.49
2018-06-21T09:55:02.204Z,30.51
2018-06-21T09:57:31.357Z,30.55
2018-06-21T10:00:00.445Z,30.62
2018-06-21T10:02:29.542Z,30.64
2018-06-21T10:04:58.799Z,30.88
2018-06-21T10:07:27.903Z,30.91
2018-06-21T10:09:57.139Z,30.83
2018-06-21T10:12:26.240Z,30.82
2018-06-21T10:14:55.354Z,30.85
2018-06-21T10:17:24.510Z,30.86
2018-06-21T10:19:53.681Z,30.96
2018-06-21T10:22:22.741Z,31.11
2018-06-21T10:24:51.848Z,31.23
2018-06-21T10:27:20.958Z,31.43
2018-06-21T10:29:50.072Z,31.38
2018-06-21T10:32:19.222Z,31.55
2018-06-21T10:34:48.359Z,31.91
2018-06-21T10:37:17.469Z,31.99
2018-06-21T10:39:46.583Z,31.86
2018-06-21T10:42:15.794Z,31.99
2018-06-21T10:44:44.872Z,31.93
2018-06-21T10:47:13.955Z,31.70
2018-06-21T10:49:43.086Z,31.82
2018-06-21T10:52:12.265Z,32.05
2018-06-21T10:54:41.362Z,32.30
2018-06-21T10:57:11.348Z,32.28
2018-06-21T10:59:40.320Z,32.41
2018-06-21T11:02:09.402Z,32.70
2018-06-21T11:04:38.554Z,32.79
2018-06-21T11:07:07.836Z,32.95
2018-06-21T11:09:36.976Z,32.81
2018-06-21T11:12:06.166Z,32.74
2018-06-21T11:14:35.348Z,32.71
2018-06-21T11:17:04.509Z,32.77
2018-06-21T11:19:33.637Z,32.40
2018-06-21T11:22:02.758Z,32.47
2018-06-21T11:24:31.889Z,32.53
2018-06-21T11:27:01.032Z,32.52
2018-06-21T11:29:30.242Z,32.74
2018-06-21T11:31:59.350Z,32.88
2018-06-21T11:34:28.471Z,32.66
2018-06-21T11:36:57.645Z,32.74
2018-06-21T11:39:26.761Z,32.69
2018-06-21T11:41:55.945Z,32.80
2018-06-21T11:44:25.069Z,32.90
2018-06-21T11:46:54.182Z,32.93
2018-06-21T11:49:23.326Z,32.89
2018-06-21T11:51:52.584Z,32.65
2018-06-21T11:54:21.706Z,32.69
2018-06-21T11:56:50.884Z,32.60
2018-06-21T11:59:19.987Z,32.72
2018-06-21T12:01:52.524Z,32.86
2018-06-21T12:04:21.691Z,32.84
2018-06-21T12:06:50.789Z,33.15
2018-06-21T12:09:19.942Z,32.80
2018-06-21T12:11:49.026Z,32.88
2018-06-21T12:14:18.128Z,32.87
2018-06-21T12:16:47.263Z,33.00
2018-06-21T12:19:16.384Z,32.98
2018-06-21T12:21:45.490Z,32.86
2018-06-21T12:24:14.664Z,32.95
2018-06-21T12:26:43.758Z,33.15
2018-06-21T12:29:12.838Z,33.23
2018-06-21T12:31:41.971Z,33.23
2018-06-21T12:34:11.079Z,33.10
2018-06-21T12:36:40.230Z,33.10
2018-06-21T12:39:09.548Z,33.24
2018-06-21T12:41:38.729Z,33.10
2018-06-21T12:44:07.839Z,33.18
2018-06-21T12:46:37.044Z,33.27
2018-06-21T12:49:07.567Z,33.12
2018-06-21T12:51:36.678Z,33.27
2018-06-21T12:54:05.809Z,33.34
2018-06-21T12:56:34.968Z,33.25
2018-06-21T12:59:04.109Z,33.22
2018-06-21T13:01:33.242Z,33.23
2018-06-21T13:04:02.374Z,33.22
2018-06-21T13:06:31.484Z,33.24
2018-06-21T13:09:11.795Z,33.34
2018-06-21T13:12:58.812Z,33.37
2018-06-21T13:15:27.966Z,33.35
2018-06-21T13:17:57.087Z,33.26
2018-06-21T13:20:26.217Z,33.18
2018-06-21T13:22:55.944Z,33.22
2018-06-21T13:25:25.078Z,33.27
2018-06-21T13:27:54.171Z,33.30
2018-06-21T13:30:23.313Z,33.34
2018-06-21T13:32:52.658Z,33.35
2018-06-21T13:35:21.785Z,33.44
2018-06-21T13:37:50.949Z,33.33
2018-06-21T13:40:20.120Z,33.40
2018-06-21T13:42:49.846Z,33.44
2018-06-21T13:45:19.000Z,33.54
2018-06-21T13:47:48.143Z,33.74
2018-06-21T13:50:17.232Z,33.72
2018-06-21T13:52:46.386Z,33.65
2018-06-21T13:55:15.484Z,33.55
2018-06-21T13:57:44.609Z,33.62
2018-06-21T14:00:13.747Z,33.62
2018-06-21T14:02:42.955Z,33.67
2018-06-21T14:05:12.148Z,33.65
2018-06-21T14:07:41.390Z,33.66
2018-06-21T14:10:10.446Z,33.72
2018-06-21T14:12:39.666Z,33.61
2018-06-21T14:15:08.897Z,33.62
2018-06-21T14:17:37.987Z,33.54
2018-06-21T14:20:06.674Z,33.57
2018-06-21T14:22:35.798Z,33.47
2018-06-21T14:25:05.472Z,33.46
2018-06-21T14:27:34.565Z,33.62
2018-06-21T14:30:03.821Z,33.61
2018-06-21T14:32:32.924Z,33.62
2018-06-21T14:35:02.036Z,33.51
2018-06-21T14:37:31.200Z,33.39
2018-06-21T14:40:00.325Z,33.47
2018-06-21T14:42:29.543Z,33.45
2018-06-21T14:44:58.648Z,33.50
2018-06-21T14:47:27.833Z,33.49
2018-06-21T14:49:56.937Z,33.53
2018-06-21T14:52:26.117Z,33.41
2018-06-21T14:54:55.230Z,33.34
2018-06-21T14:57:24.358Z,33.38
2018-06-21T14:59:53.483Z,33.32
2018-06-21T15:02:22.561Z,33.15
2018-06-21T15:04:51.645Z,33.26
2018-06-21T15:07:20.793Z,33.16
2018-06-21T15:09:49.922Z,33.16
2018-06-21T15:12:19.094Z,33.13
2018-06-21T15:14:48.229Z,33.19
2018-06-21T15:17:17.373Z,32.96
2018-06-21T15:19:46.429Z,33.02
2018-06-21T15:22:15.574Z,32.70
2018-06-21T15:24:44.670Z,32.52
2018-06-21T15:27:13.793Z,32.39
2018-06-21T15:29:43.794Z,32.31
2018-06-21T15:32:12.905Z,32.21
2018-06-21T15:34:42.045Z,32.16
2018-06-21T15:37:11.461Z,32.10
2018-06-21T15:39:40.591Z,31.87
2018-06-21T15:42:09.697Z,31.90
2018-06-21T15:44:38.801Z,31.78
2018-06-21T15:47:08.197Z,31.83
2018-06-21T15:49:37.312Z,31.88
2018-06-21T15:52:06.483Z,31.90
2018-06-21T15:54:35.683Z,31.83
2018-06-21T15:57:04.923Z,31.92
2018-06-21T15:59:34.051Z,31.90
2018-06-21T16:02:03.178Z,31.76
2018-06-21T16:04:32.782Z,31.73
2018-06-21T16:07:01.961Z,31.79
2018-06-21T16:09:31.068Z,31.63
2018-06-21T16:12:00.161Z,31.50
2018-06-21T16:14:29.306Z,31.43
2018-06-21T16:16:58.416Z,31.29
2018-06-21T16:19:27.552Z,31.25
2018-06-21T16:21:56.664Z,31.16
2018-06-21T16:24:25.781Z,31.05
2018-06-21T16:26:54.899Z,30.91
2018-06-21T16:29:24.076Z,30.83
2018-06-21T16:31:53.180Z,30.74
2018-06-21T16:34:22.380Z,30.70
2018-06-21T16:36:51.533Z,30.63
2018-06-21T16:39:20.640Z,30.62
2018-06-21T16:41:49.770Z,30.54
2018-06-21T16:44:18.933Z,30.57
2018-06-21T16:46:48.096Z,30.43
2018-06-21T16:49:17.200Z,30.33
2018-06-21T16:51:46.616Z,30.25
2018-06-21T16:54:15.715Z,30.21
2018-06-21T16:56:44.962Z,30.10
2018-06-21T16:59:14.074Z,29.99
2018-06-21T17:01:43.180Z,29.94
2018-06-21T17:04:12.296Z,29.88
2018-06-21T17:06:41.457Z,29.74
2018-06-21T17:28:43.472Z,29.57
2018-06-21T17:31:12.577Z,28.54
2018-06-21T17:33:41.686Z,28.45
2018-06-21T17:36:10.909Z,28.33
2018-06-21T17:38:39.974Z,28.26
2018-06-21T17:41:09.318Z,28.17
2018-06-21T17:43:38.550Z,28.10
2018-06-21T17:46:07.713Z,28.05
2018-06-21T17:48:36.801Z,28.05
2018-06-21T17:51:06.116Z,27.97
2018-06-21T17:53:35.247Z,27.96
2018-06-21T17:56:04.381Z,27.94
2018-06-21T17:58:33.535Z,27.95
2018-06-21T18:01:04.291Z,28.00
2018-06-21T18:03:33.448Z,28.04
2018-06-21T18:06:02.593Z,27.99
2018-06-21T18:08:31.753Z,27.94
2018-06-21T18:11:00.950Z,27.88
2018-06-21T18:13:30.096Z,27.85
2018-06-21T18:15:59.193Z,27.94
2018-06-21T18:18:28.331Z,27.88
2018-06-21T18:20:57.484Z,27.81
2018-06-21T18:23:26.604Z,27.76
2018-06-21T18:25:55.718Z,27.68
2018-06-21T18:28:24.861Z,27.70
2018-06-21T18:30:54.203Z,27.52
2018-06-21T18:33:23.344Z,27.40
2018-06-21T18:35:52.519Z,27.31
2018-06-21T18:38:21.745Z,27.34
2018-06-21T18:40:50.865Z,27.33
2018-06-21T18:43:20.021Z,27.26
2018-06-21T18:45:49.249Z,27.15
2018-06-21T18:48:18.391Z,27.13
2018-06-21T18:50:47.604Z,27.20
2018-06-21T18:53:16.698Z,27.08
2018-06-21T18:55:45.900Z,27.13
2018-06-21T18:58:15.072Z,27.00
2018-06-21T19:00:44.848Z,26.96
2018-06-21T19:03:13.960Z,27.07
2018-06-21T19:05:43.130Z,27.03
2018-06-21T19:08:18.078Z,26.88
2018-06-21T19:10:52.658Z,26.83
2018-06-21T19:13:21.667Z,26.82
2018-06-21T19:15:50.820Z,26.81
2018-06-21T19:18:19.981Z,26.70
2018-06-21T19:20:49.144Z,26.64
2018-06-21T19:23:18.238Z,26.57
2018-06-21T19:25:47.536Z,26.61
2018-06-21T19:28:16.647Z,26.42
2018-06-21T19:30:45.772Z,26.39
2018-06-21T19:33:14.920Z,26.24
2018-06-21T19:35:44.031Z,26.19
2018-06-21T19:38:13.129Z,26.10
2018-06-21T19:40:43.646Z,26.01
2018-06-21T19:43:12.831Z,25.93
2018-06-21T19:45:41.868Z,25.81
2018-06-21T19:48:11.135Z,25.79
2018-06-21T19:50:40.355Z,25.73
2018-06-21T19:53:09.705Z,25.71
2018-06-21T19:55:38.974Z,25.63
2018-06-21T19:58:08.099Z,24.76
2018-06-21T20:00:37.383Z,23.95
2018-06-21T20:03:06.695Z,23.19
2018-06-21T20:05:35.810Z,22.69
2018-06-21T20:08:05.280Z,22.45
2018-06-21T20:10:34.439Z,22.29
2018-06-21T20:13:03.565Z,22.14
2018-06-21T20:15:43.249Z,22.04
2018-06-21T20:18:12.369Z,21.92
2018-06-21T20:20:41.467Z,21.79
2018-06-21T20:23:10.610Z,21.67
2018-06-21T20:25:39.783Z,21.57
2018-06-21T20:28:08.944Z,21.50
2018-06-21T20:30:38.074Z,21.43
2018-06-21T20:33:07.427Z,21.39
2018-06-21T20:35:36.587Z,21.33
2018-06-21T20:38:05.725Z,21.31
2018-06-21T20:40:34.842Z,21.32
2018-06-21T20:43:03.964Z,21.27
2018-06-21T20:45:33.129Z,21.17
2018-06-21T20:48:02.345Z,21.09
2018-06-21T20:50:31.496Z,20.97
2018-06-21T20:53:00.611Z,20.93
2018-06-21T20:55:29.780Z,21.12
2018-06-21T20:57:58.920Z,21.16
2018-06-21T21:00:28.057Z,21.11
2018-06-21T21:02:57.209Z,21.24
2018-06-21T21:05:26.426Z,21.34
2018-06-21T21:07:55.692Z,21.52
2018-06-21T21:10:24.795Z,21.66
2018-06-21T21:12:53.933Z,21.56
2018-06-21T21:15:23.095Z,21.44
2018-06-21T21:17:52.234Z,21.37
2018-06-21T21:20:21.364Z,21.21
2018-06-21T21:22:50.477Z,21.10
2018-06-21T21:25:19.595Z,21.03
2018-06-21T21:27:48.716Z,21.01
2018-06-21T21:30:17.879Z,21.08
2018-06-21T21:32:47.534Z,21.01
2018-06-21T21:35:16.634Z,21.04
2018-06-21T21:37:45.789Z,21.24
2018-06-21T21:40:14.903Z,21.22
2018-06-21T21:42:44.018Z,21.07
2018-06-21T21:45:13.158Z,20.98
2018-06-21T21:47:42.264Z,20.88
2018-06-21T21:50:11.397Z,20.77
2018-06-21T21:52:40.555Z,20.63
2018-06-21T21:55:09.677Z,20.58
2018-06-21T21:57:38.789Z,20.57
2018-06-21T22:01:12.046Z,20.48
2018-06-21T22:03:41.147Z,20.43
2018-06-21T22:06:10.284Z,20.40
2018-06-21T22:08:39.421Z,20.39
2018-06-21T22:11:08.795Z,20.36
2018-06-21T22:13:37.886Z,20.37
2018-06-21T22:16:07.026Z,20.32
2018-06-21T22:18:36.166Z,20.27
2018-06-21T22:21:05.344Z,20.24
2018-06-21T22:23:34.468Z,20.27
2018-06-21T22:26:03.593Z,20.26
2018-06-21T22:28:32.706Z,20.18
2018-06-21T22:31:01.866Z,20.29
2018-06-21T22:33:30.974Z,20.44
2018-06-21T22:36:00.093Z,20.45
2018-06-21T22:38:29.245Z,20.51
2018-06-21T22:40:58.364Z,20.53
2018-06-21T22:43:39.061Z,20.44
2018-06-21T22:46:08.850Z,20.48
2018-06-21T22:48:38.088Z,20.47
2018-06-21T22:51:08.309Z,20.50
2018-06-21T22:53:37.489Z,20.50
2018-06-21T22:56:06.599Z,20.54
2018-06-21T22:58:35.750Z,20.55
2018-06-21T23:01:04.829Z,20.51
2018-06-21T23:03:33.928Z,20.51
2018-06-21T23:06:03.062Z,20.44
2018-06-21T23:08:32.177Z,20.34
2018-06-21T23:11:01.254Z,20.23
2018-06-21T23:13:30.421Z,20.13
2018-06-21T23:15:59.559Z,20.09
2018-06-21T23:18:39.937Z,20.03
2018-06-21T23:21:09.194Z,19.95
2018-06-21T23:23:38.314Z,19.88
2018-06-21T23:26:07.462Z,19.83
2018-06-21T23:28:36.552Z,19.71
2018-06-21T23:31:05.858Z,19.62
2018-06-21T23:33:35.004Z,19.50
2018-06-21T23:36:04.347Z,19.42
2018-06-21T23:38:33.530Z,19.35
2018-06-21T23:41:02.670Z,19.19
2018-06-21T23:43:31.751Z,19.12
2018-06-21T23:46:00.831Z,18.96
2018-06-21T23:48:29.997Z,18.70
2018-06-21T23:50:59.086Z,18.26
2018-06-21T23:53:28.274Z,18.08
2018-06-21T23:55:57.408Z,17.85
2018-06-21T23:58:26.525Z,17.71
